Time;durP1;ratioP1;P1;durP2;ratioP2;P2;SDS_P1;SDS_P2;PMS_P1;PMS_P2;Temp;Humidity;BMP_temperature;BMP_pressure;BME280_temperature;BME280_humidity;BME280_pressure;Samples;Min_cycle;Max_cycle;Signal;HPM_P1;HPM_P2
2024/04/01 00:01:00;;;;;;;14.45;4.38;;;;;;;8.86;95.24;98461.94;4932815;29;20414;-60
2024/04/01 00:03:27;;;;;;;17.70;5.47;;;;;;;8.85;95.00;98465.84;4933907;29;20130;-59
2024/04/01 00:05:57;;;;;;;9.13;4.90;;;;;;;8.82;95.08;98457.56;4931501;29;20040;-59
2024/04/01 00:08:23;;;;;;;14.80;5.47;;;;;;;8.80;94.99;98444.16;4932730;29;20047;-59
2024/04/01 00:10:50;;;;;;;15.07;5.80;;;;;;;8.78;95.19;98441.00;4932944;29;20055;-60
2024/04/01 00:13:17;;;;;;;12.52;4.32;;;;;;;8.79;95.30;98436.28;4932961;28;20537;-60
2024/04/01 00:15:44;;;;;;;13.77;4.00;;;;;;;8.76;95.37;98429.59;4932723;29;20053;-59
2024/04/01 00:18:11;;;;;;;13.20;6.60;;;;;;;8.73;95.17;98444.16;4933382;29;20058;-59
2024/04/01 00:20:38;;;;;;;10.88;4.28;;;;;;;8.73;95.17;98444.16;4933357;29;20054;-59
2024/04/01 00:23:04;;;;;;;10.80;4.50;;;;;;;8.74;95.19;98437.44;4932818;29;20382;-59
2024/04/01 00:25:32;;;;;;;15.32;5.05;;;;;;;8.71;95.21;98443.72;4933261;29;20051;-59
2024/04/01 00:27:58;;;;;;;9.38;4.18;;;;;;;8.70;95.36;98449.63;4932885;29;20043;-59
2024/04/01 00:30:24;;;;;;;12.85;4.60;;;;;;;8.67;95.38;98444.91;4932755;29;20513;-59
2024/04/01 00:32:51;;;;;;;17.75;5.80;;;;;;;8.68;95.39;98447.28;4933165;29;20051;-59
2024/04/01 00:35:17;;;;;;;14.57;4.95;;;;;;;8.66;95.26;98433.06;4933393;29;20529;-59
2024/04/01 00:37:44;;;;;;;12.32;4.35;;;;;;;8.64;95.45;98437.41;4933307;29;20506;-59
2024/04/01 00:40:10;;;;;;;11.38;4.95;;;;;;;8.62;95.57;98426.75;4948127;29;20051;-59
2024/04/01 00:42:36;;;;;;;12.55;4.43;;;;;;;8.60;95.67;98426.38;4932568;29;20058;-60
2024/04/01 00:45:03;;;;;;;8.43;4.05;;;;;;;8.59;95.40;98427.53;4932774;29;20862;-59
2024/04/01 00:47:30;;;;;;;15.00;4.35;;;;;;;8.58;95.48;98423.19;4932660;29;20043;-59
2024/04/01 00:49:57;;;;;;;20.92;5.93;;;;;;;8.59;95.39;98422.03;4933010;29;20062;-60
2024/04/01 00:52:25;;;;;;;13.77;4.22;;;;;;;8.58;95.52;98421.22;4932184;29;20039;-60
2024/04/01 00:54:51;;;;;;;18.40;5.00;;;;;;;8.57;95.57;98422.41;4929637;29;20418;-60
2024/04/01 00:57:20;;;;;;;18.00;4.38;;;;;;;8.55;95.51;98422.00;4916557;29;20060;-59
2024/04/01 00:59:49;;;;;;;16.77;6.50;;;;;;;8.53;95.85;98423.56;4926505;29;20055;-59
2024/04/01 01:02:16;;;;;;;17.88;5.80;;;;;;;8.53;95.82;98412.53;4932915;29;20048;-59
2024/04/01 01:04:44;;;;;;;17.90;7.00;;;;;;;8.51;95.79;98415.69;4932897;29;20618;-59
2024/04/01 01:07:12;;;;;;;11.52;4.70;;;;;;;8.52;95.89;98410.97;4933034;29;20047;-59
2024/04/01 01:09:40;;;;;;;14.77;5.15;;;;;;;8.54;95.78;98408.59;4931857;29;20058;-59
2024/04/01 01:12:06;;;;;;;14.65;5.57;;;;;;;8.54;95.92;98403.09;4932515;29;20051;-60
2024/04/01 01:14:33;;;;;;;17.52;5.05;;;;;;;8.52;96.24;98406.22;4932042;29;20055;-59
2024/04/01 01:16:59;;;;;;;11.80;4.85;;;;;;;8.49;96.28;98411.75;4937569;29;20064;-59
2024/04/01 01:19:27;;;;;;;12.82;5.55;;;;;;;8.49;96.24;98408.97;4930489;29;20066;-59
2024/04/01 01:22:03;;;;;;;13.80;6.15;;;;;;;8.49;96.44;98403.47;4932491;29;20051;-59
2024/04/01 01:24:30;;;;;;;16.30;6.47;;;;;;;8.47;96.47;98403.84;4932381;29;20063;-59
2024/04/01 01:26:56;;;;;;;13.30;5.75;;;;;;;8.44;96.46;98401.09;4932356;29;20059;-60
2024/04/01 01:29:22;;;;;;;15.73;5.40;;;;;;;8.43;96.66;98405.81;4931786;29;20047;-60
2024/04/01 01:31:49;;;;;;;19.98;6.05;;;;;;;8.43;96.51;98402.25;4932387;29;20055;-59
2024/04/01 01:34:16;;;;;;;14.63;6.28;;;;;;;8.43;96.60;98396.75;4947845;29;20047;-59
2024/04/01 01:36:43;;;;;;;19.05;5.55;;;;;;;8.41;96.62;98394.38;4932167;29;20055;-59
2024/04/01 01:39:12;;;;;;;17.42;6.15;;;;;;;8.40;96.89;98397.50;4932339;29;20047;-60
2024/04/01 01:41:38;;;;;;;20.13;6.60;;;;;;;8.37;96.92;98393.56;4931794;29;20063;-60
2024/04/01 01:44:04;;;;;;;15.52;5.88;;;;;;;8.36;96.81;98389.25;4931208;29;20058;-59
2024/04/01 01:46:32;;;;;;;12.60;6.10;;;;;;;8.36;96.85;98388.44;4932317;29;20054;-60
2024/04/01 01:48:59;;;;;;;19.63;5.00;;;;;;;8.35;97.01;98390.41;4932118;29;20050;-59
2024/04/01 01:51:27;;;;;;;11.57;5.32;;;;;;;8.34;96.91;98382.53;4931299;29;20399;-59
2024/04/01 01:53:53;;;;;;;19.10;6.90;;;;;;;8.35;96.94;98389.63;4931595;29;20043;-60
2024/04/01 01:56:19;;;;;;;10.35;4.95;;;;;;;8.32;97.05;98380.16;4927667;29;20506;-60
2024/04/01 01:58:45;;;;;;;15.23;5.35;;;;;;;8.31;97.07;98383.31;4944917;29;20413;-60
2024/04/01 02:01:12;;;;;;;16.85;5.05;;;;;;;8.31;97.15;98386.06;4931402;29;20418;-60
2024/04/01 02:03:38;;;;;;;15.27;5.20;;;;;;;8.28;97.17;98379.38;4927541;29;20050;-59
2024/04/01 02:06:04;;;;;;;12.57;4.53;;;;;;;8.27;97.21;98376.97;4922847;29;20050;-59
2024/04/01 02:08:30;;;;;;;12.35;4.22;;;;;;;8.27;97.47;98374.22;4927313;29;20051;-60
2024/04/01 02:10:57;;;;;;;11.98;4.93;;;;;;;8.24;97.43;98367.50;4929796;29;20051;-59
2024/04/01 02:13:23;;;;;;;18.63;6.35;;;;;;;8.25;97.41;98373.78;4927934;29;20059;-60
2024/04/01 02:15:50;;;;;;;14.80;5.30;;;;;;;8.23;97.40;98374.19;4912474;29;20040;-59
2024/04/01 02:18:17;;;;;;;13.23;5.03;;;;;;;8.22;97.60;98374.56;4913528;29;20052;-59
2024/04/01 02:20:43;;;;;;;10.00;4.47;;;;;;;8.20;97.68;98372.22;4923161;29;20051;-60
2024/04/01 02:23:10;;;;;;;12.45;6.18;;;;;;;8.21;97.51;98381.25;4931270;29;20516;-59
2024/04/01 02:25:36;;;;;;;13.02;4.57;;;;;;;8.22;97.64;98375.34;4927124;29;20055;-60
2024/04/01 02:28:02;;;;;;;12.15;5.35;;;;;;;8.21;97.73;98379.28;4926563;29;20046;-59
2024/04/01 02:30:28;;;;;;;11.38;5.35;;;;;;;8.21;97.59;98372.97;4939148;29;20058;-59
2024/04/01 02:32:55;;;;;;;15.68;6.22;;;;;;;8.21;97.70;98382.03;4931207;29;20690;-59
2024/04/01 02:35:21;;;;;;;12.48;4.63;;;;;;;8.24;97.56;98374.97;4931762;29;20058;-60
2024/04/01 02:37:47;;;;;;;14.77;4.47;;;;;;;8.25;97.80;98371.03;4930164;29;20051;-59
2024/04/01 02:40:13;;;;;;;14.70;3.92;;;;;;;8.26;97.61;98375.38;4931301;29;20390;-59
2024/04/01 02:42:40;;;;;;;8.38;3.88;;;;;;;8.26;97.86;98369.88;4927928;29;20058;-59
2024/04/01 02:45:06;;;;;;;11.13;3.38;;;;;;;8.27;97.53;98371.47;4924178;29;20055;-59
2024/04/01 02:47:34;;;;;;;10.63;3.50;;;;;;;8.27;97.74;98371.47;4931271;29;21249;-59
2024/04/01 02:50:00;;;;;;;9.70;3.00;;;;;;;8.28;97.75;98367.53;4931381;29;20051;-59
2024/04/01 02:52:26;;;;;;;10.85;3.33;;;;;;;8.28;98.10;98367.53;4946093;29;20058;-60
2024/04/01 02:54:52;;;;;;;7.88;3.30;;;;;;;8.27;98.01;98366.75;4931177;29;20055;-59
2024/04/01 02:57:19;;;;;;;9.23;3.50;;;;;;;8.25;97.95;98368.28;4931306;29;20089;-59
2024/04/01 02:59:47;;;;;;;9.52;4.43;;;;;;;8.25;98.18;98371.03;4930952;29;20047;-59
2024/04/01 03:02:14;;;;;;;17.65;4.57;;;;;;;8.25;98.16;98373.78;5023203;23;20059;-60
2024/04/01 03:04:40;;;;;;;10.35;3.47;;;;;;;8.24;98.31;98373.00;4965338;28;20057;-62
2024/04/01 03:07:06;;;;;;;13.68;4.32;;;;;;;8.23;98.27;98376.16;4962553;28;20047;-59
2024/04/01 03:09:32;;;;;;;11.88;3.75;;;;;;;8.22;98.35;98380.06;4961261;28;20047;-61
2024/04/01 03:11:59;;;;;;;7.78;3.50;;;;;;;8.21;98.34;98384.00;4967082;28;20508;-59
2024/04/01 03:14:26;;;;;;;14.05;3.67;;;;;;;8.20;98.51;98382.44;4965064;28;20050;-60
2024/04/01 03:16:52;;;;;;;10.73;3.63;;;;;;;8.19;98.63;98389.91;4959238;28;20047;-59
2024/04/01 03:19:19;;;;;;;14.00;4.22;;;;;;;8.18;98.54;98384.78;4958739;28;20225;-59
2024/04/01 03:21:45;;;;;;;10.52;2.97;;;;;;;8.19;98.59;98384.41;4965712;28;20408;-62
2024/04/01 03:24:11;;;;;;;12.65;3.05;;;;;;;8.18;98.64;98385.56;4964063;28;20051;-59
2024/04/01 03:26:37;;;;;;;11.13;3.42;;;;;;;8.18;98.54;98385.56;4963579;28;20050;-60
2024/04/01 03:29:04;;;;;;;10.80;2.90;;;;;;;8.20;98.66;98387.94;4969136;28;20065;-59
2024/04/01 03:31:30;;;;;;;9.75;2.90;;;;;;;8.21;98.64;98390.31;4984922;28;20050;-59
2024/04/01 03:33:57;;;;;;;13.05;3.83;;;;;;;8.20;98.71;98387.94;4965342;28;20074;-59
2024/04/01 03:36:24;;;;;;;11.13;2.80;;;;;;;8.20;98.71;98391.50;4965461;28;20055;-59
2024/04/01 03:38:50;;;;;;;11.50;2.90;;;;;;;8.21;98.68;98395.03;4959563;28;20066;-60
2024/04/01 03:41:16;;;;;;;12.15;3.17;;;;;;;8.18;98.63;98401.34;4965607;28;20054;-59
2024/04/01 03:43:43;;;;;;;11.95;4.78;;;;;;;8.17;98.68;98399.75;4939182;28;20059;-60
2024/04/01 03:46:09;;;;;;;11.20;3.65;;;;;;;8.17;98.82;98405.25;4967099;28;20050;-59
2024/04/01 03:48:36;;;;;;;10.35;2.53;;;;;;;8.18;98.80;98406.84;4969476;28;20050;-60
2024/04/01 03:51:02;;;;;;;6.18;1.73;;;;;;;8.19;98.80;98402.91;4972179;28;20057;-59
2024/04/01 03:53:28;;;;;;;6.22;2.33;;;;;;;8.17;98.64;98417.06;4958504;28;20065;-59
2024/04/01 03:55:54;;;;;;;5.85;2.28;;;;;;;8.17;98.58;98410.75;4972030;28;20050;-59
2024/04/01 03:58:21;;;;;;;6.05;2.20;;;;;;;8.18;98.75;98401.34;4968286;28;20051;-60
2024/04/01 04:00:47;;;;;;;9.05;2.47;;;;;;;8.18;98.64;98406.84;4962383;28;20063;-59
2024/04/01 04:03:14;;;;;;;5.20;2.83;;;;;;;8.18;98.75;98391.06;4953412;28;20050;-60
2024/04/01 04:05:42;;;;;;;11.40;3.08;;;;;;;8.18;98.63;98395.81;4953109;28;20066;-59
2024/04/01 04:08:09;;;;;;;13.80;3.00;;;;;;;8.17;98.72;98397.00;4951873;28;20618;-60
2024/04/01 04:10:35;;;;;;;11.65;4.50;;;;;;;8.16;98.67;98400.91;4952486;28;20500;-59
2024/04/01 04:13:01;;;;;;;12.23;4.10;;;;;;;8.17;98.66;98399.75;4968941;28;20508;-59
2024/04/01 04:15:27;;;;;;;13.65;2.97;;;;;;;8.17;98.73;98400.53;4952696;28;20385;-59
2024/04/01 04:17:54;;;;;;;11.73;3.15;;;;;;;8.20;98.75;98398.97;4967854;28;20061;-58
2024/04/01 04:20:20;;;;;;;4.72;2.95;;;;;;;8.17;99.01;98400.53;4953027;28;20054;-60
2024/04/01 04:22:46;;;;;;;16.05;3.00;;;;;;;8.18;99.03;98398.56;4952056;28;20055;-60
2024/04/01 04:25:13;;;;;;;13.60;3.05;;;;;;;8.18;99.06;98401.34;4949585;29;20070;-60
2024/04/01 04:27:40;;;;;;;10.05;3.42;;;;;;;8.19;98.93;98397.38;4947093;28;20070;-59
2024/04/01 04:30:08;;;;;;;13.50;4.03;;;;;;;8.21;99.11;98400.53;4968872;28;20066;-60
2024/04/01 04:32:36;;;;;;;13.80;3.00;;;;;;;8.22;98.93;98402.91;4952176;28;20058;-56
2024/04/01 04:35:02;;;;;;;9.48;3.22;;;;;;;8.22;99.16;98402.13;4951915;28;20050;-59
2024/04/01 04:37:29;;;;;;;11.50;3.53;;;;;;;8.22;99.16;98402.91;4949105;29;20058;-59
2024/04/01 04:39:55;;;;;;;12.20;4.80;;;;;;;8.20;99.09;98399.78;4939611;29;20062;-59
2024/04/01 04:42:21;;;;;;;15.02;2.42;;;;;;;8.21;99.23;98406.03;4948099;28;20047;-59
2024/04/01 04:44:47;;;;;;;9.75;3.03;;;;;;;8.18;99.20;98402.09;4951830;28;20067;-60
2024/04/01 04:47:14;;;;;;;4.80;2.47;;;;;;;8.18;99.21;98401.34;4951341;28;20047;-59
2024/04/01 04:49:40;;;;;;;17.35;3.83;;;;;;;8.17;99.27;98394.22;4949332;29;20051;-59
2024/04/01 04:52:06;;;;;;;5.60;2.78;;;;;;;8.17;99.20;98397.00;4947877;28;20071;-60
2024/04/01 04:54:32;;;;;;;15.30;3.30;;;;;;;8.17;99.28;98399.75;4938833;29;20051;-60
2024/04/01 04:56:59;;;;;;;11.30;3.33;;;;;;;8.17;99.21;98395.03;4945283;29;20047;-59
2024/04/01 04:59:25;;;;;;;7.63;2.42;;;;;;;8.18;99.33;98401.34;4948370;28;20050;-60
2024/04/01 05:01:52;;;;;;;9.63;2.80;;;;;;;8.17;99.36;98394.22;4947563;28;20058;-60
2024/04/01 05:04:19;;;;;;;7.38;2.92;;;;;;;8.19;99.28;98400.13;4950631;28;20069;-60
2024/04/01 05:06:45;;;;;;;11.05;2.67;;;;;;;8.17;99.28;98405.25;4947060;29;20043;-60
2024/04/01 05:09:12;;;;;;;14.77;4.75;;;;;;;8.15;99.49;98402.09;4946835;28;20046;-59
2024/04/01 05:11:38;;;;;;;9.90;3.08;;;;;;;8.14;99.46;98397.75;4944132;29;20055;-59
2024/04/01 05:14:04;;;;;;;6.22;3.28;;;;;;;8.15;99.36;98402.91;4939309;29;20058;-60
2024/04/01 05:16:30;;;;;;;7.03;2.42;;;;;;;8.16;99.39;98403.66;4944582;28;20054;-59
2024/04/01 05:18:57;;;;;;;8.30;3.03;;;;;;;8.16;99.42;98398.16;4942197;28;20055;-60
2024/04/01 05:21:23;;;;;;;10.77;4.50;;;;;;;8.17;99.54;98399.75;4949589;28;20047;-60
2024/04/01 05:23:52;;;;;;;5.25;2.65;;;;;;;8.17;99.58;98397.00;4950339;28;20125;-60
2024/04/01 05:26:19;;;;;;;7.72;2.75;;;;;;;8.19;99.62;98405.66;4934600;28;20050;-60
2024/04/01 05:28:46;;;;;;;7.38;2.60;;;;;;;8.18;99.65;98401.34;4950883;28;20428;-59
2024/04/01 05:31:13;;;;;;;10.60;2.90;;;;;;;8.17;99.67;98410.75;4946935;28;20527;-60
2024/04/01 05:33:42;;;;;;;11.65;3.55;;;;;;;8.18;99.71;98406.84;4943944;28;20550;-60
2024/04/01 05:36:08;;;;;;;9.18;3.22;;;;;;;8.18;99.61;98401.34;4949839;28;20043;-59
2024/04/01 05:38:35;;;;;;;9.23;3.75;;;;;;;8.17;99.83;98410.75;4950161;28;20081;-59
2024/04/01 05:41:01;;;;;;;7.32;2.67;;;;;;;8.17;99.47;98408.00;4949945;28;20093;-59
2024/04/01 05:43:27;;;;;;;10.48;3.72;;;;;;;8.16;99.71;98407.22;4939405;29;20058;-59
2024/04/01 05:45:54;;;;;;;6.65;2.70;;;;;;;8.15;99.89;98415.88;4950296;28;20046;-59
2024/04/01 05:48:20;;;;;;;10.27;3.03;;;;;;;8.15;99.78;98415.88;4938406;29;20062;-60
2024/04/01 05:50:53;;;;;;;10.80;2.60;;;;;;;8.14;99.70;98412.31;4948937;28;20057;-61
2024/04/01 05:53:19;;;;;;;7.55;2.70;;;;;;;8.13;100.00;98410.72;4950038;28;20051;-60
2024/04/01 05:55:46;;;;;;;13.20;2.80;;;;;;;8.12;99.90;98414.69;4949998;28;20039;-59
2024/04/01 05:58:12;;;;;;;7.82;2.50;;;;;;;8.14;99.80;98425.31;4937775;29;20051;-61
2024/04/01 06:00:39;;;;;;;12.10;2.22;;;;;;;8.14;99.91;98420.59;4933152;29;20436;-59
2024/04/01 06:03:20;;;;;;;16.23;4.43;;;;;;;8.13;100.00;98427.28;5088915;27;20138;-59
2024/04/01 06:05:46;;;;;;;16.55;5.80;;;;;;;8.13;100.00;98419.00;5074002;28;20063;-58
2024/04/01 06:08:12;;;;;;;36.30;3.65;;;;;;;8.13;99.99;98423.75;5066069;28;20041;-58
2024/04/01 06:10:39;;;;;;;8.55;2.50;;;;;;;8.14;99.99;98426.09;5069052;28;20041;-58
2024/04/01 06:13:05;;;;;;;12.63;2.72;;;;;;;8.14;99.99;98422.56;5059628;28;20392;-58
2024/04/01 06:15:32;;;;;;;13.70;3.03;;;;;;;8.14;100.00;98425.31;5065480;28;20044;-58
2024/04/01 06:17:58;;;;;;;8.50;2.55;;;;;;;8.13;100.00;98421.00;5068963;28;20052;-58
2024/04/01 06:20:24;;;;;;;12.85;2.40;;;;;;;8.13;100.00;98424.50;5072448;28;20790;-58
2024/04/01 06:22:50;;;;;;;13.23;4.40;;;;;;;8.14;100.00;98423.34;5061851;28;20059;-57
2024/04/01 06:25:18;;;;;;;11.55;2.50;;;;;;;8.15;100.00;98418.63;5071217;28;20418;-58
2024/04/01 06:27:44;;;;;;;12.52;2.03;;;;;;;8.15;99.97;98418.63;5065565;28;20053;-58
2024/04/01 06:30:10;;;;;;;6.30;2.58;;;;;;;8.16;100.00;98420.19;5072186;28;20048;-58
2024/04/01 06:32:39;;;;;;;12.77;2.42;;;;;;;8.16;100.00;98421.00;5065131;28;20041;-58
2024/04/01 06:35:05;;;;;;;9.48;2.17;;;;;;;8.17;100.00;98427.31;5061616;28;20041;-58
2024/04/01 06:37:31;;;;;;;6.80;1.83;;;;;;;8.18;100.00;98429.66;5058386;28;20044;-58
2024/04/01 06:39:58;;;;;;;12.25;2.08;;;;;;;8.17;100.00;98427.31;5061534;28;20056;-58
2024/04/01 06:42:24;;;;;;;8.13;1.98;;;;;;;8.17;100.00;98427.31;5061220;28;20065;-58
2024/04/01 06:44:51;;;;;;;11.23;2.40;;;;;;;8.18;100.00;98428.91;5071788;28;20131;-59
2024/04/01 06:47:18;;;;;;;8.48;2.28;;;;;;;8.19;100.00;98430.47;5067413;28;20084;-58
2024/04/01 06:49:44;;;;;;;9.45;1.90;;;;;;;8.19;100.00;98431.25;5081756;28;20521;-58
2024/04/01 06:52:10;;;;;;;10.05;2.13;;;;;;;8.17;100.00;98438.31;5067363;28;20044;-58
2024/04/01 06:54:37;;;;;;;10.20;2.00;;;;;;;8.16;100.00;98433.97;5081134;28;20037;-58
2024/04/01 06:57:03;;;;;;;8.07;2.38;;;;;;;8.17;100.00;98430.84;5063094;28;20053;-58
2024/04/01 06:59:29;;;;;;;8.57;2.03;;;;;;;8.20;100.00;98429.28;5060967;28;20060;-58
2024/04/01 07:01:55;;;;;;;7.13;2.13;;;;;;;8.21;100.00;98433.59;5060279;28;20049;-58
2024/04/01 07:04:22;;;;;;;11.52;2.42;;;;;;;8.21;100.00;98436.38;5072125;28;20060;-59
2024/04/01 07:06:49;;;;;;;6.03;1.42;;;;;;;8.22;100.00;98430.47;5076360;28;20052;-58
2024/04/01 07:09:15;;;;;;;11.43;3.58;;;;;;;8.25;100.00;98428.91;5072174;28;20417;-58
2024/04/01 07:11:41;;;;;;;12.82;2.20;;;;;;;8.29;100.00;98435.25;5060608;28;20044;-58
2024/04/01 07:14:08;;;;;;;8.70;1.67;;;;;;;8.28;100.00;98433.69;5045212;28;20072;-58
2024/04/01 07:16:34;;;;;;;6.00;1.55;;;;;;;8.28;100.00;98434.50;5062949;28;20048;-58
2024/04/01 07:19:00;;;;;;;13.20;4.65;;;;;;;8.28;100.00;98434.50;5047808;28;20056;-58
2024/04/01 07:21:29;;;;;;;8.68;3.30;;;;;;;8.29;100.00;98438.81;5060584;28;20056;-58
2024/04/01 07:23:55;;;;;;;9.25;1.90;;;;;;;8.32;100.00;98440.81;5047208;28;20056;-58
2024/04/01 07:26:21;;;;;;;9.40;2.55;;;;;;;8.32;100.00;98431.72;5051877;28;20059;-58
2024/04/01 07:28:47;;;;;;;14.10;2.10;;;;;;;8.27;100.00;98443.94;5055109;28;20609;-58
2024/04/01 07:31:14;;;;;;;8.50;2.80;;;;;;;8.26;100.00;98441.53;5066224;28;20529;-58
2024/04/01 07:33:40;;;;;;;7.47;1.95;;;;;;;8.26;100.00;98442.31;5055306;28;20049;-58
2024/04/01 07:36:06;;;;;;;12.23;2.25;;;;;;;8.28;100.00;98444.72;5052616;28;20052;-58
2024/04/01 07:38:32;;;;;;;13.32;3.10;;;;;;;8.29;100.00;98440.78;5050685;28;20055;-58
2024/04/01 07:40:59;;;;;;;18.90;3.60;;;;;;;8.28;100.00;98439.22;5053149;28;20405;-58
2024/04/01 07:43:25;;;;;;;9.50;2.20;;;;;;;8.27;100.00;98443.13;5055577;28;20064;-57
2024/04/01 07:45:52;;;;;;;6.78;1.40;;;;;;;8.26;100.00;98441.53;5046976;28;20052;-58
2024/04/01 07:48:18;;;;;;;9.25;1.85;;;;;;;8.25;100.00;98449.00;5047112;28;20048;-58
2024/04/01 07:50:45;;;;;;;5.93;1.45;;;;;;;8.26;100.00;98449.81;5035488;28;20056;-58
2024/04/01 07:53:11;;;;;;;8.23;1.98;;;;;;;8.23;100.00;98458.84;5066769;28;20056;-58
2024/04/01 07:55:37;;;;;;;4.45;1.58;;;;;;;8.21;100.00;98466.69;5053566;28;20060;-56
2024/04/01 07:58:04;;;;;;;7.68;1.83;;;;;;;8.21;100.00;98455.66;5055582;28;20045;-58
2024/04/01 08:00:31;;;;;;;5.50;2.40;;;;;;;8.22;100.00;98468.28;5052624;28;20063;-58
2024/04/01 08:02:57;;;;;;;8.10;1.70;;;;;;;8.20;100.00;98465.91;5037314;28;20063;-58
2024/04/01 08:05:23;;;;;;;8.95;2.00;;;;;;;8.20;100.00;98465.91;5045043;28;20421;-58
2024/04/01 08:07:50;;;;;;;4.47;1.40;;;;;;;8.19;100.00;98461.56;5030248;28;20486;-60
2024/04/01 08:10:16;;;;;;;7.95;1.95;;;;;;;8.23;100.00;98458.84;5018801;28;20677;-58
2024/04/01 08:12:42;;;;;;;11.75;2.25;;;;;;;8.25;100.00;98451.78;5038929;28;20144;-58
2024/04/01 08:15:09;;;;;;;6.40;1.52;;;;;;;8.27;100.00;98454.97;5033223;28;20049;-58
2024/04/01 08:17:35;;;;;;;14.35;1.70;;;;;;;8.27;100.00;98457.72;5033706;28;20072;-58
2024/04/01 08:20:01;;;;;;;5.95;1.83;;;;;;;8.28;100.00;98461.25;5045119;28;20041;-58
2024/04/01 08:22:27;;;;;;;8.52;2.20;;;;;;;8.33;100.00;98464.44;5034132;28;20057;-58
2024/04/01 08:24:54;;;;;;;9.65;3.28;;;;;;;8.34;100.00;98456.97;5038826;28;20129;-58
2024/04/01 08:27:20;;;;;;;6.20;1.38;;;;;;;8.34;100.00;98466.00;5018814;28;20052;-58
2024/04/01 08:29:46;;;;;;;11.30;2.47;;;;;;;8.33;100.00;98463.66;5029632;28;20040;-58
2024/04/01 08:32:12;;;;;;;3.90;1.55;;;;;;;8.29;100.00;98469.13;5033690;28;20053;-58
2024/04/01 08:34:38;;;;;;;10.38;1.85;;;;;;;8.29;100.00;98462.81;5039003;28;20044;-58
2024/04/01 08:37:05;;;;;;;5.97;1.45;;;;;;;8.31;100.00;98477.03;5026576;28;20053;-60
2024/04/01 08:39:31;;;;;;;10.57;3.30;;;;;;;8.32;100.00;98462.06;5039036;28;20446;-58
2024/04/01 08:42:04;;;;;;;6.82;1.83;;;;;;;8.32;100.00;98468.38;5009474;28;20050;-58
2024/04/01 08:44:32;;;;;;;5.40;1.52;;;;;;;8.33;100.00;98469.16;5033359;28;20064;-58
2024/04/01 08:47:00;;;;;;;8.63;1.70;;;;;;;8.34;100.00;98468.00;5031851;28;20403;-58
2024/04/01 08:49:32;;;;;;;6.70;1.52;;;;;;;8.35;100.00;98469.56;5037865;28;20049;-58
2024/04/01 08:52:03;;;;;;;11.93;2.15;;;;;;;8.36;100.00;98476.66;5038781;28;20052;-58
2024/04/01 08:54:30;;;;;;;8.77;2.25;;;;;;;8.37;100.00;98486.50;5025928;28;20414;-58
2024/04/01 08:56:56;;;;;;;7.22;2.03;;;;;;;8.38;100.00;98491.66;5027724;28;20041;-58
2024/04/01 08:59:25;;;;;;;7.82;2.13;;;;;;;8.34;100.00;98488.06;5045364;28;20056;-58
2024/04/01 09:01:51;;;;;;;12.10;3.38;;;;;;;8.33;100.00;98480.19;5037019;28;20060;-58
2024/04/01 09:04:17;;;;;;;11.82;2.83;;;;;;;8.30;100.00;98492.00;5045326;28;20128;-60
2024/04/01 09:06:44;;;;;;;10.80;2.10;;;;;;;8.27;100.00;98488.03;5058391;28;20422;-58
2024/04/01 09:09:11;;;;;;;10.43;2.70;;;;;;;8.27;100.00;98487.25;5048779;28;20048;-58
2024/04/01 09:11:38;;;;;;;6.60;2.05;;;;;;;8.29;100.00;98490.41;5049236;28;20053;-58
2024/04/01 09:14:05;;;;;;;9.45;2.17;;;;;;;8.28;100.00;98488.84;5055326;28;20044;-58
2024/04/01 09:16:32;;;;;;;13.13;3.67;;;;;;;8.28;100.00;98484.13;5051503;28;20048;-58
2024/04/01 09:19:06;;;;;;;7.93;2.15;;;;;;;8.29;100.00;98485.69;5054701;28;20067;-58
2024/04/01 09:21:34;;;;;;;13.90;3.40;;;;;;;8.34;100.00;98490.06;5044926;28;20503;-58
2024/04/01 09:24:01;;;;;;;5.85;2.17;;;;;;;8.32;100.00;98495.13;5045004;28;20037;-58
2024/04/01 09:26:32;;;;;;;7.57;2.00;;;;;;;8.32;100.00;98495.94;5044522;28;20052;-58
2024/04/01 09:28:59;;;;;;;6.68;2.17;;;;;;;8.32;100.00;98493.19;5044983;28;20052;-58
2024/04/01 09:31:25;;;;;;;7.00;2.15;;;;;;;8.29;100.00;98501.41;5050716;28;20052;-58
2024/04/01 09:33:55;;;;;;;8.18;2.50;;;;;;;8.29;100.00;98490.41;5065099;28;20059;-58
2024/04/01 09:36:22;;;;;;;4.53;2.10;;;;;;;8.32;100.00;98498.69;5051434;28;20048;-59
2024/04/01 09:38:51;;;;;;;9.32;3.08;;;;;;;8.34;100.00;98499.09;5064661;28;20033;-58
2024/04/01 09:41:18;;;;;;;10.48;2.78;;;;;;;8.37;100.00;98505.81;5052491;28;20059;-58
2024/04/01 09:43:44;;;;;;;10.63;2.67;;;;;;;8.39;100.00;98506.22;5047872;28;20063;-58
2024/04/01 09:46:12;;;;;;;13.15;2.60;;;;;;;8.40;100.00;98503.06;5064584;28;20041;-58
2024/04/01 09:48:39;;;;;;;5.50;2.78;;;;;;;8.42;100.00;98511.75;5064164;28;20063;-58
2024/04/01 09:51:13;;;;;;;12.68;3.13;;;;;;;8.44;100.00;98508.63;5057393;28;20045;-58
2024/04/01 09:53:39;;;;;;;13.20;3.67;;;;;;;8.49;100.00;98508.25;5044572;28;20080;-58
2024/04/01 09:56:30;;;;;;;10.55;3.15;;;;;;;8.51;100.00;98500.38;5044869;28;20044;-58
2024/04/01 09:59:15;;;;;;;6.10;2.35;;;;;;;8.52;100.00;98510.25;5043848;28;20056;-58
2024/04/01 10:01:59;;;;;;;8.30;2.65;;;;;;;8.54;100.00;98505.94;5043850;28;20064;-58
2024/04/01 10:04:53;;;;;;;12.77;3.13;;;;;;;8.58;100.00;98503.16;5035703;28;20049;-59
2024/04/01 10:07:26;;;;;;;6.63;2.67;;;;;;;8.59;100.00;98515.78;5050015;28;20077;-59
2024/04/01 10:09:55;;;;;;;;;;;;;;;8.64;100.00;98518.19;5050801;28;20045;-58
2024/04/01 10:12:49;;;;;;;6.95;2.50;;;;;;;8.71;100.00;98515.44;5045060;28;20378;-59
2024/04/01 10:15:49;;;;;;;7.15;2.78;;;;;;;8.72;100.00;98514.28;5035401;28;20447;-59
2024/04/01 10:18:24;;;;;;;8.20;2.88;;;;;;;8.72;100.00;98519.78;5022837;28;20079;-59
2024/04/01 10:21:02;;;;;;;9.30;3.05;;;;;;;8.74;100.00;98522.94;5040706;28;20045;-58
2024/04/01 10:23:38;;;;;;;12.43;4.43;;;;;;;8.79;100.00;98524.56;5051511;28;20056;-58
2024/04/01 10:26:32;;;;;;;5.72;2.33;;;;;;;8.82;100.00;98519.06;5065033;28;20048;-59
2024/04/01 10:29:01;;;;;;;8.77;3.72;;;;;;;8.86;100.00;98530.13;5047776;28;20404;-58
2024/04/01 10:32:00;;;;;;;7.95;2.80;;;;;;;8.86;100.00;98525.38;5044680;28;20052;-58
2024/04/01 10:34:30;;;;;;;14.02;4.03;;;;;;;8.87;100.00;98529.72;5043666;28;20136;-60
2024/04/01 10:37:45;;;;;;;8.02;3.00;;;;;;;8.92;100.00;98523.06;5044804;28;20410;-59
2024/04/01 10:40:24;;;;;;;7.20;3.25;;;;;;;8.95;100.00;98534.09;4977692;28;20045;-59
2024/04/01 10:42:50;;;;;;;8.55;3.95;;;;;;;8.99;100.00;98537.66;5043917;28;20041;-59
2024/04/01 10:45:32;;;;;;;8.40;3.85;;;;;;;9.02;100.00;98525.84;5044509;28;20060;-60
2024/04/01 10:48:13;;;;;;;8.80;4.03;;;;;;;9.09;100.00;98534.16;5044708;28;20045;-58
2024/04/01 10:51:08;;;;;;;8.27;4.10;;;;;;;9.13;100.00;98532.19;5061523;28;20033;-58
2024/04/01 10:54:07;;;;;;;9.20;5.18;;;;;;;9.15;100.00;98532.59;5026658;28;20052;-58
2024/04/01 10:56:53;;;;;;;7.28;3.90;;;;;;;9.22;100.00;98539.31;5043004;28;20053;-58
2024/04/01 10:59:28;;;;;;;8.98;4.20;;;;;;;9.27;100.00;98531.44;5056763;28;20057;-59
2024/04/01 11:02:18;;;;;;;11.43;3.65;;;;;;;9.35;100.00;98538.56;5054082;28;20417;-58
2024/04/01 11:05:14;;;;;;;10.00;5.03;;;;;;;9.44;100.00;98525.19;5053844;28;20045;-58
2024/04/01 11:07:46;;;;;;;5.47;2.40;;;;;;;9.48;100.00;98527.94;5052418;28;20064;-59
2024/04/01 11:10:19;;;;;;;;;;;;;;;9.51;100.00;98538.19;5059263;28;20055;-58
2024/04/01 11:13:18;;;;;;;8.65;2.67;;;;;;;9.56;100.00;98535.84;5055137;28;19929;-58
2024/04/01 11:15:45;;;;;;;8.43;2.75;;;;;;;9.64;100.00;98536.66;5043443;28;20053;-59
2024/04/01 11:18:14;;;;;;;5.88;3.03;;;;;;;9.69;100.00;98528.75;5047031;28;20057;-58
2024/04/01 11:20:51;;;;;;;7.50;3.17;;;;;;;9.73;100.00;98529.56;5047852;28;20060;-58
2024/04/01 11:23:44;;;;;;;7.57;5.47;;;;;;;9.84;100.00;98535.09;5047025;28;20053;-58
2024/04/01 11:26:38;;;;;;;15.02;9.45;;;;;;;9.96;100.00;98536.69;5050291;28;20045;-58
2024/04/01 11:29:16;;;;;;;8.40;5.07;;;;;;;10.07;100.00;98532.75;5066885;28;20155;-59
2024/04/01 11:31:54;;;;;;;4.78;3.28;;;;;;;10.20;100.00;98533.94;5067780;28;20056;-58
2024/04/01 11:34:43;;;;;;;5.85;4.13;;;;;;;10.29;100.00;98542.66;5050372;28;20048;-58
2024/04/01 11:37:40;;;;;;;7.55;2.63;;;;;;;10.37;100.00;98543.41;5033182;28;20049;-58
2024/04/01 11:40:10;;;;;;;7.22;2.75;;;;;;;10.35;100.00;98543.03;5057707;28;20052;-58
2024/04/01 11:42:44;;;;;;;4.68;2.92;;;;;;;10.37;100.00;98546.19;5048723;28;20052;-58